createdAt,value
2023-03-29T00:00:52.073Z,403.00
2023-03-29T00:02:52.048Z,401.00
2023-03-29T00:03:52.097Z,401.00
2023-03-29T00:04:51.933Z,398.00
2023-03-29T00:07:51.881Z,395.00
2023-03-29T00:09:51.850Z,393.00
2023-03-29T00:11:51.804Z,393.00
2023-03-29T00:13:51.770Z,394.00
2023-03-29T00:16:51.752Z,399.00
2023-03-29T00:17:51.736Z,400.00
2023-03-29T00:18:51.672Z,396.00
2023-03-29T00:19:51.667Z,396.00
2023-03-29T00:20:51.680Z,395.00
2023-03-29T00:22:51.622Z,400.00
2023-03-29T00:23:51.625Z,401.00
2023-03-29T00:24:51.570Z,400.00
2023-03-29T00:25:51.573Z,399.00
2023-03-29T00:29:51.468Z,398.00
2023-03-29T00:31:51.560Z,397.00
2023-03-29T00:33:51.395Z,395.00
2023-03-29T00:34:51.357Z,398.00
2023-03-29T00:35:51.424Z,397.00
2023-03-29T00:36:51.327Z,399.00
2023-03-29T00:40:51.229Z,399.00
2023-03-29T00:41:51.207Z,398.00
2023-03-29T00:42:51.207Z,396.00
2023-03-29T00:43:51.178Z,399.00
2023-03-29T00:45:51.143Z,398.00
2023-03-29T00:47:51.133Z,399.00
2023-03-29T00:50:51.049Z,395.00
2023-03-29T00:51:51.034Z,394.00
2023-03-29T00:52:51.000Z,399.00
2023-03-29T00:55:50.932Z,400.00
2023-03-29T00:56:50.944Z,399.00
2023-03-29T00:57:50.894Z,399.00
2023-03-29T00:58:50.872Z,399.00
2023-03-29T01:02:50.889Z,400.00
2023-03-29T01:04:50.769Z,402.00
2023-03-29T01:06:50.801Z,403.00
2023-03-29T01:07:50.716Z,401.00
2023-03-29T01:08:50.672Z,398.00
2023-03-29T01:10:50.651Z,395.00
2023-03-29T01:13:50.585Z,393.00
2023-03-29T01:15:50.542Z,395.00
2023-03-29T01:16:50.588Z,396.00
2023-03-29T01:17:50.557Z,396.00
2023-03-29T01:19:50.482Z,400.00
2023-03-29T01:22:50.420Z,398.00
2023-03-29T01:23:50.391Z,398.00
2023-03-29T01:24:50.375Z,398.00
2023-03-29T01:28:50.280Z,394.00
2023-03-29T01:29:50.271Z,394.00
2023-03-29T01:32:50.261Z,397.00
2023-03-29T01:33:50.175Z,396.00
2023-03-29T01:34:50.193Z,395.00
2023-03-29T01:35:50.275Z,396.00
2023-03-29T01:36:50.265Z,394.00
2023-03-29T01:37:50.306Z,391.00
2023-03-29T01:38:50.354Z,392.00
2023-03-29T01:39:50.383Z,393.00
2023-03-29T01:40:50.426Z,391.00
2023-03-29T01:41:50.467Z,394.00
2023-03-29T01:42:50.506Z,395.00
2023-03-29T01:43:50.550Z,396.00
2023-03-29T01:44:50.587Z,395.00
2023-03-29T01:45:50.635Z,395.00
2023-03-29T01:46:50.663Z,397.00
2023-03-29T01:47:50.728Z,397.00
2023-03-29T01:48:50.716Z,397.00
2023-03-29T01:49:50.760Z,395.00
2023-03-29T01:50:50.793Z,392.00
2023-03-29T01:51:50.847Z,387.00
2023-03-29T01:52:50.882Z,387.00
2023-03-29T01:53:50.942Z,388.00
2023-03-29T01:54:50.956Z,387.00
2023-03-29T01:55:50.998Z,389.00
2023-03-29T01:56:51.043Z,390.00
2023-03-29T01:57:51.085Z,391.00
2023-03-29T01:58:51.095Z,396.00
2023-03-29T01:59:51.125Z,399.00
2023-03-29T02:00:51.175Z,399.00
2023-03-29T02:01:51.278Z,397.00
2023-03-29T02:02:51.368Z,394.00
2023-03-29T02:03:51.284Z,394.00
2023-03-29T02:04:51.335Z,392.00
2023-03-29T02:05:51.347Z,391.00
2023-03-29T02:06:51.402Z,393.00
2023-03-29T02:07:51.445Z,393.00
2023-03-29T02:08:51.464Z,392.00
2023-03-29T02:09:51.508Z,393.00
2023-03-29T02:10:51.550Z,394.00
2023-03-29T02:11:51.600Z,393.00
2023-03-29T02:12:51.625Z,393.00
2023-03-29T02:13:51.660Z,393.00
2023-03-29T02:14:51.698Z,391.00
2023-03-29T02:15:51.743Z,392.00
2023-03-29T02:16:51.756Z,393.00
2023-03-29T02:17:51.841Z,393.00
2023-03-29T02:18:51.838Z,395.00
2023-03-29T02:19:51.898Z,395.00
2023-03-29T02:20:51.940Z,396.00
2023-03-29T02:23:52.041Z,394.00
2023-03-29T02:24:52.074Z,394.00
2023-03-29T02:25:52.114Z,392.00
2023-03-29T02:26:52.150Z,392.00
2023-03-29T02:27:52.212Z,396.00
2023-03-29T02:28:52.251Z,396.00
2023-03-29T02:29:52.278Z,394.00
2023-03-29T02:30:52.329Z,394.00
2023-03-29T02:31:52.378Z,393.00
2023-03-29T02:32:52.437Z,394.00
2023-03-29T02:33:52.435Z,392.00
2023-03-29T02:34:52.479Z,392.00
2023-03-29T02:35:52.562Z,393.00
2023-03-29T02:36:52.543Z,394.00
2023-03-29T02:37:52.615Z,394.00
2023-03-29T02:38:52.616Z,395.00
2023-03-29T02:39:52.689Z,396.00
2023-03-29T02:40:52.698Z,396.00
2023-03-29T02:41:52.733Z,395.00
2023-03-29T02:42:52.774Z,394.00
2023-03-29T02:43:52.807Z,395.00
2023-03-29T02:46:52.951Z,394.00
2023-03-29T02:47:52.989Z,394.00
2023-03-29T02:48:53.014Z,393.00
2023-03-29T02:49:53.045Z,393.00
2023-03-29T02:50:53.086Z,391.00
2023-03-29T02:51:53.134Z,395.00
2023-03-29T02:52:53.180Z,397.00
2023-03-29T02:53:53.223Z,400.00
2023-03-29T02:54:53.256Z,398.00
2023-03-29T02:55:53.300Z,396.00
2023-03-29T02:56:53.366Z,395.00
2023-03-29T02:57:53.387Z,397.00
2023-03-29T02:58:53.444Z,394.00
2023-03-29T02:59:53.481Z,396.00
2023-03-29T03:00:53.538Z,396.00
2023-03-29T03:01:53.753Z,394.00
2023-03-29T03:02:53.687Z,389.00
2023-03-29T03:03:53.813Z,391.00
2023-03-29T03:04:53.724Z,393.00
2023-03-29T03:05:53.773Z,390.00
2023-03-29T03:06:53.817Z,387.00
2023-03-29T03:07:53.884Z,386.00
2023-03-29T03:08:53.909Z,386.00
2023-03-29T03:09:53.938Z,386.00
2023-03-29T03:10:54.018Z,386.00
2023-03-29T03:11:54.022Z,387.00
2023-03-29T03:12:54.076Z,389.00
2023-03-29T03:13:54.132Z,390.00
2023-03-29T03:14:54.192Z,391.00
2023-03-29T03:15:54.279Z,389.00
2023-03-29T03:16:54.255Z,387.00
2023-03-29T03:17:54.332Z,387.00
2023-03-29T03:18:54.369Z,384.00
2023-03-29T03:19:54.389Z,386.00
2023-03-29T03:20:54.438Z,384.00
2023-03-29T03:21:54.494Z,382.00
2023-03-29T03:22:54.586Z,382.00
2023-03-29T03:23:54.598Z,383.00
2023-03-29T03:24:54.609Z,383.00
2023-03-29T03:25:54.650Z,385.00
2023-03-29T03:26:54.684Z,384.00
2023-03-29T03:27:54.748Z,385.00
2023-03-29T03:28:54.809Z,386.00
2023-03-29T03:29:54.820Z,388.00
2023-03-29T03:30:54.855Z,390.00
2023-03-29T03:31:54.941Z,389.00
2023-03-29T03:32:55.029Z,390.00
2023-03-29T03:33:55.008Z,391.00
2023-03-29T03:34:55.040Z,391.00
2023-03-29T03:35:55.107Z,390.00
2023-03-29T03:36:55.136Z,390.00
2023-03-29T03:37:55.188Z,391.00
2023-03-29T03:38:55.236Z,392.00
2023-03-29T03:39:55.248Z,390.00
2023-03-29T03:40:55.319Z,390.00
2023-03-29T03:41:55.361Z,389.00
2023-03-29T03:42:55.430Z,389.00
2023-03-29T03:43:55.480Z,388.00
2023-03-29T03:44:55.548Z,388.00
2023-03-29T03:45:55.590Z,387.00
2023-03-29T03:46:55.630Z,387.00
2023-03-29T03:47:55.736Z,385.00
2023-03-29T03:48:55.714Z,386.00
2023-03-29T03:49:55.800Z,388.00
2023-03-29T03:50:55.809Z,388.00
2023-03-29T03:51:55.868Z,387.00
2023-03-29T03:52:55.909Z,385.00
2023-03-29T03:53:55.973Z,381.00
2023-03-29T03:54:55.959Z,381.00
2023-03-29T04:00:55.893Z,386.00
2023-03-29T04:01:55.944Z,385.00
2023-03-29T04:02:56.015Z,385.00
2023-03-29T04:03:56.054Z,384.00
2023-03-29T04:05:55.828Z,383.00
2023-03-29T04:10:55.771Z,386.00
2023-03-29T04:11:55.758Z,386.00
2023-03-29T04:12:55.732Z,385.00
2023-03-29T04:15:55.776Z,381.00
2023-03-29T04:19:55.696Z,382.00
2023-03-29T04:21:55.652Z,388.00
2023-03-29T04:23:55.629Z,392.00
2023-03-29T04:25:55.610Z,391.00
2023-03-29T04:28:55.563Z,393.00
2023-03-29T04:32:55.625Z,396.00
2023-03-29T04:35:55.484Z,400.00
2023-03-29T04:37:55.418Z,394.00
2023-03-29T04:38:55.396Z,392.00
2023-03-29T04:42:55.354Z,392.00
2023-03-29T04:45:55.382Z,390.00
2023-03-29T04:47:55.348Z,388.00
2023-03-29T04:49:55.301Z,388.00
2023-03-29T04:52:55.278Z,385.00
2023-03-29T04:53:55.278Z,384.00
2023-03-29T04:54:55.289Z,384.00
2023-03-29T04:58:55.214Z,384.00
2023-03-29T05:00:55.193Z,383.00
2023-03-29T05:03:55.215Z,378.00
2023-03-29T05:04:55.182Z,377.00
2023-03-29T05:06:55.167Z,379.00
2023-03-29T05:07:55.169Z,378.00
2023-03-29T05:10:55.132Z,380.00
2023-03-29T05:12:55.100Z,382.00
2023-03-29T05:17:55.083Z,383.00
2023-03-29T05:18:55.089Z,383.00
2023-03-29T05:19:55.085Z,384.00
2023-03-29T05:22:55.034Z,380.00
2023-03-29T05:23:55.042Z,382.00
2023-03-29T05:24:55.099Z,384.00
2023-03-29T05:25:55.022Z,387.00
2023-03-29T05:29:54.998Z,389.00
2023-03-29T05:32:54.981Z,405.00
2023-03-29T05:33:55.000Z,410.00
2023-03-29T05:35:54.928Z,461.00
2023-03-29T05:38:54.824Z,552.00
2023-03-29T05:39:54.827Z,566.00
2023-03-29T05:41:54.807Z,631.00
2023-03-29T05:42:54.775Z,658.00
2023-03-29T05:47:54.761Z,860.00
2023-03-29T05:48:54.726Z,860.00
2023-03-29T05:49:54.740Z,872.00
2023-03-29T05:51:55.267Z,936.00
2023-03-29T05:54:54.589Z,719.00
2023-03-29T05:55:54.602Z,722.00
2023-03-29T05:56:54.745Z,721.00
2023-03-29T05:57:54.529Z,714.00
2023-03-29T06:04:54.527Z,799.00
2023-03-29T06:08:54.384Z,644.00
2023-03-29T06:09:54.389Z,619.00
2023-03-29T06:11:54.354Z,591.00
2023-03-29T06:12:54.408Z,575.00
2023-03-29T06:14:54.383Z,562.00
2023-03-29T06:15:54.494Z,556.00
2023-03-29T06:20:54.353Z,523.00
2023-03-29T06:23:54.336Z,511.00
2023-03-29T06:24:54.449Z,506.00
2023-03-29T06:25:54.347Z,501.00
2023-03-29T06:27:54.350Z,485.00
2023-03-29T06:30:54.443Z,571.00
2023-03-29T06:31:54.425Z,574.00
2023-03-29T06:33:54.345Z,662.00
2023-03-29T06:34:54.355Z,708.00
2023-03-29T06:35:54.395Z,747.00
2023-03-29T06:38:54.320Z,944.00
2023-03-29T06:39:54.328Z,942.00
2023-03-29T06:40:54.343Z,944.00
2023-03-29T06:42:54.358Z,974.00
2023-03-29T06:43:54.267Z,1036.00
2023-03-29T06:46:54.361Z,1112.00
2023-03-29T06:47:54.295Z,1130.00
2023-03-29T06:51:54.142Z,1285.00
2023-03-29T06:52:54.115Z,1295.00
2023-03-29T06:53:54.174Z,1317.00
2023-03-29T06:55:54.068Z,1342.00
2023-03-29T06:56:54.091Z,1345.00
2023-03-29T06:58:54.044Z,1327.00
2023-03-29T06:59:54.008Z,1326.00
2023-03-29T07:04:53.925Z,1331.00
2023-03-29T07:05:53.896Z,1324.00
2023-03-29T07:07:53.871Z,1314.00
2023-03-29T07:08:53.839Z,1318.00
2023-03-29T07:09:54.112Z,1313.00
2023-03-29T07:10:53.811Z,1324.00
2023-03-29T07:11:53.830Z,1356.00
2023-03-29T07:12:53.865Z,1362.00
2023-03-29T07:15:53.835Z,1360.00
2023-03-29T07:18:53.656Z,1363.00
2023-03-29T07:19:53.676Z,1356.00
2023-03-29T07:21:53.616Z,1342.00
2023-03-29T07:22:53.575Z,1342.00
2023-03-29T07:23:53.609Z,1341.00
2023-03-29T07:27:03.390Z,1255.00
2023-03-29T07:27:54.563Z,1246.00
2023-03-29T07:30:53.569Z,1233.00
2023-03-29T07:32:53.619Z,1251.00
2023-03-29T07:34:53.417Z,1262.00
2023-03-29T07:36:53.300Z,1248.00
2023-03-29T07:39:53.191Z,1252.00
2023-03-29T07:42:53.127Z,1024.00
2023-03-29T07:43:53.096Z,1025.00
2023-03-29T07:44:53.468Z,1012.00
2023-03-29T07:45:53.097Z,1154.00
2023-03-29T07:46:53.031Z,1243.00
2023-03-29T07:47:53.091Z,1076.00
2023-03-29T07:51:52.973Z,1015.00
2023-03-29T07:53:52.994Z,944.00
2023-03-29T07:54:52.968Z,924.00
2023-03-29T07:55:52.905Z,923.00
2023-03-29T07:56:53.170Z,898.00
2023-03-29T07:57:52.991Z,888.00
2023-03-29T08:00:52.812Z,963.00
2023-03-29T08:04:52.767Z,1093.00
2023-03-29T08:06:52.701Z,1162.00
2023-03-29T08:07:52.655Z,1172.00
2023-03-29T08:08:52.615Z,1191.00
2023-03-29T08:09:52.596Z,1207.00
2023-03-29T08:15:52.572Z,1236.00
2023-03-29T08:16:52.548Z,1243.00
2023-03-29T08:17:52.571Z,1252.00
2023-03-29T08:18:52.443Z,1292.00
2023-03-29T08:19:52.515Z,1301.00
2023-03-29T08:20:53.378Z,1300.00
2023-03-29T08:24:52.273Z,1295.00
2023-03-29T08:26:52.219Z,1309.00
2023-03-29T08:27:52.256Z,1316.00
2023-03-29T08:29:52.159Z,1319.00
2023-03-29T08:30:52.251Z,1314.00
2023-03-29T08:35:52.020Z,1141.00
2023-03-29T08:36:52.020Z,1114.00
2023-03-29T08:37:52.116Z,1087.00
2023-03-29T08:38:51.973Z,1092.00
2023-03-29T08:39:51.915Z,1060.00
2023-03-29T08:40:52.799Z,1023.00
2023-03-29T08:41:51.878Z,1026.00
2023-03-29T08:42:51.884Z,986.00
2023-03-29T08:44:51.789Z,975.00
2023-03-29T08:45:51.888Z,958.00
2023-03-29T08:48:51.788Z,968.00
2023-03-29T08:49:51.943Z,926.00
2023-03-29T08:50:51.994Z,925.00
2023-03-29T08:51:51.705Z,835.00
2023-03-29T08:55:51.583Z,1051.00
2023-03-29T08:58:51.586Z,1164.00
2023-03-29T08:59:51.507Z,1196.00
2023-03-29T09:02:51.620Z,1300.00
2023-03-29T09:03:51.938Z,1315.00
2023-03-29T09:04:51.410Z,1328.00
2023-03-29T09:05:52.445Z,1360.00
2023-03-29T09:07:51.402Z,1361.00
2023-03-29T09:08:51.540Z,1362.00
2023-03-29T09:09:51.273Z,1369.00
2023-03-29T09:10:51.454Z,1380.00
2023-03-29T09:13:51.191Z,1373.00
2023-03-29T09:17:51.049Z,1373.00
2023-03-29T09:18:51.275Z,1375.00
2023-03-29T09:21:50.962Z,1365.00
2023-03-29T09:22:50.870Z,1373.00
2023-03-29T09:23:50.847Z,1381.00
2023-03-29T09:25:54.090Z,1394.00
2023-03-29T09:29:50.783Z,1399.00
2023-03-29T09:31:50.878Z,1397.00
2023-03-29T09:33:50.537Z,1421.00
2023-03-29T09:34:50.540Z,1438.00
2023-03-29T09:36:50.420Z,1480.00
2023-03-29T09:40:50.294Z,1473.00
2023-03-29T09:41:50.341Z,1490.00
2023-03-29T09:43:50.554Z,1506.00
2023-03-29T09:44:50.240Z,1496.00
2023-03-29T09:48:50.017Z,1412.00
2023-03-29T09:51:49.938Z,1289.00
2023-03-29T09:53:49.874Z,1277.00
2023-03-29T09:55:50.608Z,1247.00
2023-03-29T09:56:49.899Z,1228.00
2023-03-29T10:01:49.642Z,1157.00
2023-03-29T10:02:49.605Z,1146.00
2023-03-29T10:03:49.620Z,1129.00
2023-03-29T10:04:49.504Z,1116.00
2023-03-29T10:08:49.468Z,1074.00
2023-03-29T10:11:49.353Z,1038.00
2023-03-29T10:12:49.247Z,1030.00
2023-03-29T10:13:49.247Z,1021.00
2023-03-29T10:14:52.992Z,1014.00
2023-03-29T10:17:49.114Z,992.00
2023-03-29T10:21:48.978Z,960.00
2023-03-29T10:22:48.904Z,950.00
2023-03-29T10:24:48.849Z,934.00
2023-03-29T10:27:48.737Z,916.00
2023-03-29T10:28:48.697Z,910.00
2023-03-29T10:32:48.610Z,896.00
2023-03-29T10:34:48.492Z,891.00
2023-03-29T10:36:48.502Z,886.00
2023-03-29T10:37:48.492Z,882.00
2023-03-29T10:38:48.372Z,880.00
2023-03-29T10:40:48.368Z,876.00
2023-03-29T10:41:48.263Z,875.00
2023-03-29T10:42:48.345Z,871.00
2023-03-29T10:47:48.122Z,856.00
2023-03-29T10:48:48.029Z,857.00
2023-03-29T10:50:48.000Z,852.00
2023-03-29T10:51:47.898Z,849.00
2023-03-29T10:52:47.869Z,847.00
2023-03-29T10:56:47.748Z,840.00
2023-03-29T10:57:47.797Z,839.00
2023-03-29T10:59:47.670Z,833.00
2023-03-29T11:00:47.608Z,832.00
2023-03-29T11:01:47.640Z,832.00
2023-03-29T11:02:47.636Z,833.00
2023-03-29T11:03:47.553Z,833.00
2023-03-29T11:04:47.578Z,829.00
2023-03-29T11:06:47.431Z,825.00
2023-03-29T11:09:47.423Z,827.00
2023-03-29T11:10:47.363Z,825.00
2023-03-29T11:11:47.365Z,822.00
2023-03-29T11:12:47.241Z,821.00
2023-03-29T11:13:47.183Z,821.00
2023-03-29T11:14:47.201Z,816.00
2023-03-29T11:16:47.134Z,810.00
2023-03-29T11:19:47.019Z,785.00
2023-03-29T11:20:46.982Z,778.00
2023-03-29T11:23:46.895Z,754.00
2023-03-29T11:24:46.870Z,744.00
2023-03-29T11:26:46.815Z,738.00
2023-03-29T11:28:46.802Z,732.00
2023-03-29T11:31:46.692Z,723.00
2023-03-29T11:32:46.724Z,722.00
2023-03-29T11:34:46.538Z,726.00
2023-03-29T11:37:46.430Z,721.00
2023-03-29T11:39:46.581Z,720.00
2023-03-29T11:41:46.293Z,721.00
2023-03-29T11:44:46.938Z,724.00
2023-03-29T11:45:46.283Z,725.00
2023-03-29T11:47:46.149Z,731.00
2023-03-29T11:48:46.032Z,733.00
2023-03-29T11:49:46.000Z,737.00
2023-03-29T11:54:45.856Z,735.00
2023-03-29T11:56:45.916Z,735.00
2023-03-29T11:57:45.722Z,735.00
2023-03-29T11:58:45.701Z,734.00
2023-03-29T12:00:45.662Z,727.00
2023-03-29T12:01:45.609Z,727.00
2023-03-29T12:06:45.449Z,715.00
2023-03-29T12:07:45.400Z,713.00
2023-03-29T12:09:45.321Z,708.00
2023-03-29T12:10:45.277Z,706.00
2023-03-29T12:11:45.249Z,700.00
2023-03-29T12:13:45.171Z,691.00
2023-03-29T12:18:44.988Z,689.00
2023-03-29T12:19:44.996Z,686.00
2023-03-29T12:20:44.975Z,684.00
2023-03-29T12:22:44.884Z,678.00
2023-03-29T12:25:44.819Z,674.00
2023-03-29T12:26:44.766Z,678.00
2023-03-29T12:28:44.712Z,677.00
2023-03-29T12:31:44.797Z,672.00
2023-03-29T12:32:45.006Z,674.00
2023-03-29T12:33:44.540Z,903.00
2023-03-29T12:37:44.428Z,995.00
2023-03-29T12:39:44.341Z,1087.00
2023-03-29T12:41:44.895Z,1117.00
2023-03-29T12:42:44.342Z,1155.00
2023-03-29T12:44:44.175Z,1187.00
2023-03-29T12:45:44.226Z,1202.00
2023-03-29T12:46:44.199Z,1276.00
2023-03-29T12:47:44.106Z,1274.00
2023-03-29T12:48:44.094Z,1280.00
2023-03-29T12:50:44.080Z,1294.00
2023-03-29T12:51:43.949Z,1309.00
2023-03-29T12:53:41.190Z,1395.00
2023-03-29T12:54:41.209Z,1408.00
2023-03-29T12:55:41.201Z,1424.00
2023-03-29T12:56:41.238Z,1429.00
2023-03-29T12:57:41.213Z,1441.00
2023-03-29T12:58:41.184Z,1445.00
2023-03-29T12:59:41.157Z,1449.00
2023-03-29T13:00:41.136Z,1450.00
2023-03-29T13:01:41.353Z,1456.00
2023-03-29T13:02:41.303Z,1477.00
2023-03-29T13:03:41.135Z,1493.00
2023-03-29T13:04:41.078Z,1507.00
2023-03-29T13:05:41.068Z,1502.00
2023-03-29T13:06:41.101Z,1515.00
2023-03-29T13:07:41.040Z,1533.00
2023-03-29T13:08:41.032Z,1555.00
2023-03-29T13:09:41.120Z,1549.00
2023-03-29T13:10:40.992Z,1548.00
2023-03-29T13:11:41.010Z,1559.00
2023-03-29T13:12:40.972Z,1561.00
2023-03-29T13:13:40.967Z,1499.00
2023-03-29T13:14:40.960Z,1428.00
2023-03-29T13:15:40.998Z,1372.00
2023-03-29T13:16:40.932Z,1339.00
2023-03-29T13:17:40.935Z,1297.00
2023-03-29T13:18:40.932Z,1268.00
2023-03-29T13:19:40.881Z,1150.00
2023-03-29T13:20:40.897Z,1089.00
2023-03-29T13:21:40.886Z,1083.00
2023-03-29T13:22:40.859Z,1043.00
2023-03-29T13:23:40.840Z,997.00
2023-03-29T13:24:40.923Z,934.00
2023-03-29T13:25:40.814Z,915.00
2023-03-29T13:26:40.931Z,1012.00
2023-03-29T13:27:40.843Z,844.00
2023-03-29T13:28:40.807Z,864.00
2023-03-29T13:29:40.825Z,843.00
2023-03-29T13:30:40.848Z,810.00
2023-03-29T13:31:40.962Z,812.00
2023-03-29T13:32:40.821Z,857.00
2023-03-29T13:33:40.763Z,897.00
2023-03-29T13:34:40.769Z,942.00
2023-03-29T13:35:40.770Z,1041.00
2023-03-29T13:36:40.749Z,1060.00
2023-03-29T13:37:40.825Z,1101.00
2023-03-29T13:38:40.726Z,1121.00
2023-03-29T13:39:40.814Z,1137.00
2023-03-29T13:40:40.746Z,1152.00
2023-03-29T13:41:40.721Z,1200.00
2023-03-29T13:42:40.749Z,1236.00
2023-03-29T13:43:40.690Z,1255.00
2023-03-29T13:44:40.797Z,1272.00
2023-03-29T13:45:40.773Z,1320.00
2023-03-29T13:46:40.942Z,1339.00
2023-03-29T13:47:41.805Z,1352.00
2023-03-29T13:48:40.895Z,1369.00
2023-03-29T13:49:40.946Z,1416.00
2023-03-29T13:50:40.974Z,1434.00
2023-03-29T13:51:41.095Z,1451.00
2023-03-29T13:52:41.093Z,1448.00
2023-03-29T13:53:41.159Z,1465.00
2023-03-29T13:54:41.169Z,1501.00
2023-03-29T13:55:41.212Z,1496.00
2023-03-29T13:56:41.266Z,1460.00
2023-03-29T13:57:41.345Z,1549.00
2023-03-29T13:58:41.344Z,1560.00
2023-03-29T13:59:41.381Z,1570.00
2023-03-29T14:00:41.443Z,1602.00
2023-03-29T14:01:41.379Z,1634.00
2023-03-29T14:02:41.446Z,1639.00
2023-03-29T14:03:41.329Z,1646.00
2023-03-29T14:04:41.308Z,1661.00
2023-03-29T14:05:41.335Z,1684.00
2023-03-29T14:06:41.282Z,1699.00
2023-03-29T14:07:41.264Z,1736.00
2023-03-29T14:08:41.293Z,1717.00
2023-03-29T14:09:41.238Z,1728.00
2023-03-29T14:10:41.238Z,1760.00
2023-03-29T14:11:41.250Z,1761.00
2023-03-29T14:12:42.055Z,1843.00
2023-03-29T14:13:41.187Z,1846.00
2023-03-29T14:14:55.710Z,1855.00
2023-03-29T14:15:42.200Z,1815.00
2023-03-29T14:16:41.152Z,1783.00
2023-03-29T14:17:41.206Z,1763.00
2023-03-29T14:18:41.085Z,1770.00
2023-03-29T14:19:41.092Z,1770.00
2023-03-29T14:20:41.094Z,1690.00
2023-03-29T14:21:41.044Z,1688.00
2023-03-29T14:22:41.060Z,1683.00
2023-03-29T14:23:41.017Z,1668.00
2023-03-29T14:24:41.015Z,1658.00
2023-03-29T14:25:40.990Z,1646.00
2023-03-29T14:26:40.998Z,1594.00
2023-03-29T14:27:41.038Z,1571.00
2023-03-29T14:28:41.084Z,1578.00
2023-03-29T14:29:41.123Z,1587.00
2023-03-29T14:30:41.166Z,1580.00
2023-03-29T14:31:41.234Z,1572.00
2023-03-29T14:32:41.322Z,1566.00
2023-03-29T14:33:41.320Z,1557.00
2023-03-29T14:34:41.331Z,1545.00
2023-03-29T14:35:41.346Z,1535.00
2023-03-29T14:36:41.386Z,1509.00
2023-03-29T14:37:41.247Z,1493.00
2023-03-29T14:38:41.216Z,1488.00
2023-03-29T14:39:41.197Z,1476.00
2023-03-29T14:40:41.199Z,1470.00
2023-03-29T14:41:41.162Z,1461.00
2023-03-29T14:42:41.160Z,1457.00
2023-03-29T14:43:41.135Z,1447.00
2023-03-29T14:44:41.126Z,1439.00
2023-03-29T14:45:41.128Z,1430.00
2023-03-29T14:46:41.201Z,1415.00
2023-03-29T14:47:41.114Z,1407.00
2023-03-29T14:48:41.040Z,1397.00
2023-03-29T14:49:41.019Z,1388.00
2023-03-29T14:50:40.988Z,1375.00
2023-03-29T14:51:40.993Z,1369.00
2023-03-29T14:52:40.967Z,1367.00
2023-03-29T14:53:40.951Z,1366.00
2023-03-29T14:54:40.911Z,1364.00
2023-03-29T14:55:40.919Z,1361.00
2023-03-29T14:56:40.905Z,1359.00
2023-03-29T14:57:40.891Z,1354.00
2023-03-29T14:58:40.870Z,1351.00
2023-03-29T14:59:40.880Z,1347.00
2023-03-29T15:00:40.844Z,1347.00
2023-03-29T15:01:40.870Z,1346.00
2023-03-29T15:02:40.929Z,1339.00
2023-03-29T15:03:41.009Z,1337.00
2023-03-29T15:04:40.844Z,1332.00
2023-03-29T15:05:40.840Z,1327.00
2023-03-29T15:06:40.819Z,1324.00
2023-03-29T15:07:40.825Z,1322.00
2023-03-29T15:08:44.088Z,1320.00
2023-03-29T15:09:41.799Z,1319.00
2023-03-29T15:10:42.993Z,1317.00
2023-03-29T15:11:40.771Z,1317.00
2023-03-29T15:12:40.769Z,1316.00
2023-03-29T15:13:40.757Z,1311.00
2023-03-29T15:14:40.748Z,1306.00
2023-03-29T15:15:40.773Z,1302.00
2023-03-29T15:16:40.728Z,1300.00
2023-03-29T15:17:50.896Z,1297.00
2023-03-29T15:18:41.704Z,1293.00
2023-03-29T15:19:40.687Z,1293.00
2023-03-29T15:20:40.668Z,1290.00
2023-03-29T15:21:40.661Z,1288.00
2023-03-29T15:22:40.635Z,1286.00
2023-03-29T15:23:40.619Z,1287.00
2023-03-29T15:24:40.612Z,1287.00
2023-03-29T15:25:40.591Z,1282.00
2023-03-29T15:26:40.590Z,1283.00
2023-03-29T15:27:40.572Z,1281.00
2023-03-29T15:28:40.548Z,1280.00
2023-03-29T15:29:40.556Z,1277.00
2023-03-29T15:30:40.548Z,1274.00
2023-03-29T15:31:40.566Z,1270.00
2023-03-29T15:32:40.595Z,1267.00
2023-03-29T15:33:40.666Z,1261.00
2023-03-29T15:34:40.494Z,1260.00
2023-03-29T15:35:40.543Z,1258.00
2023-03-29T15:36:40.530Z,1258.00
2023-03-29T15:37:40.488Z,1256.00
2023-03-29T15:38:44.182Z,1256.00
2023-03-29T15:39:40.437Z,1257.00
2023-03-29T15:40:40.445Z,1256.00
2023-03-29T15:41:40.407Z,1255.00
2023-03-29T15:42:40.401Z,1253.00
2023-03-29T15:43:40.381Z,1250.00
2023-03-29T15:44:40.366Z,1249.00
2023-03-29T15:45:40.357Z,1247.00
2023-03-29T15:46:40.383Z,1243.00
2023-03-29T15:47:40.364Z,1241.00
2023-03-29T15:48:40.331Z,1238.00
2023-03-29T15:49:40.318Z,1233.00
2023-03-29T15:50:40.304Z,1226.00
2023-03-29T15:51:40.284Z,1223.00
2023-03-29T15:52:40.289Z,1221.00
2023-03-29T15:53:40.293Z,1218.00
2023-03-29T15:54:40.297Z,1216.00
2023-03-29T15:55:40.270Z,1213.00
2023-03-29T15:56:42.588Z,1208.00
2023-03-29T15:57:40.333Z,1203.00
2023-03-29T15:58:40.251Z,1203.00
2023-03-29T15:59:40.223Z,1200.00
2023-03-29T16:00:40.227Z,1198.00
2023-03-29T16:01:40.274Z,1195.00
2023-03-29T16:02:40.327Z,1194.00
2023-03-29T16:03:40.200Z,1191.00
2023-03-29T16:04:40.152Z,1190.00
2023-03-29T16:05:40.127Z,1189.00
2023-03-29T16:06:40.101Z,1188.00
2023-03-29T16:07:40.105Z,1186.00
2023-03-29T16:08:40.080Z,1184.00
2023-03-29T16:09:40.059Z,1181.00
2023-03-29T16:10:40.057Z,1178.00
2023-03-29T16:11:40.036Z,1180.00
2023-03-29T16:12:40.026Z,1175.00
2023-03-29T16:13:40.066Z,1172.00
2023-03-29T16:14:41.879Z,1171.00
2023-03-29T16:15:39.996Z,1169.00
2023-03-29T16:16:40.003Z,1167.00
2023-03-29T16:17:40.027Z,1166.00
2023-03-29T16:18:39.940Z,1165.00
2023-03-29T16:19:39.938Z,1166.00
2023-03-29T16:20:39.945Z,1164.00
2023-03-29T16:21:39.922Z,1162.00
2023-03-29T16:22:39.917Z,1160.00
2023-03-29T16:23:39.907Z,1158.00
2023-03-29T16:24:39.887Z,1155.00
2023-03-29T16:25:39.925Z,1150.00
2023-03-29T16:26:39.862Z,1152.00
2023-03-29T16:27:39.868Z,1149.00
2023-03-29T16:28:39.861Z,1147.00
2023-03-29T16:29:39.833Z,1145.00
2023-03-29T16:30:39.819Z,1144.00
2023-03-29T16:31:39.842Z,1141.00
2023-03-29T16:32:39.883Z,1135.00
2023-03-29T16:33:39.808Z,1129.00
2023-03-29T16:34:39.786Z,1128.00
2023-03-29T16:35:39.872Z,1128.00
2023-03-29T16:36:39.739Z,1127.00
2023-03-29T16:37:39.755Z,1128.00
2023-03-29T16:38:39.748Z,1126.00
2023-03-29T16:39:39.743Z,1125.00
2023-03-29T16:40:39.733Z,1119.00
2023-03-29T16:41:39.767Z,1119.00
2023-03-29T16:42:39.770Z,1117.00
2023-03-29T16:43:39.779Z,1118.00
2023-03-29T16:44:39.719Z,1117.00
2023-03-29T16:45:39.718Z,1118.00
2023-03-29T16:46:39.717Z,1112.00
2023-03-29T16:47:39.702Z,1109.00
2023-03-29T16:48:39.707Z,1106.00
2023-03-29T16:49:40.242Z,1106.00
2023-03-29T16:50:39.707Z,1104.00
2023-03-29T16:51:39.680Z,1102.00
2023-03-29T16:52:39.696Z,1099.00
2023-03-29T16:53:39.674Z,1098.00
2023-03-29T16:54:39.673Z,1098.00
2023-03-29T16:55:39.661Z,1100.00
2023-03-29T16:56:39.697Z,1101.00
2023-03-29T16:57:39.671Z,1097.00
2023-03-29T16:58:39.648Z,1094.00
2023-03-29T16:59:39.655Z,1093.00
2023-03-29T17:00:39.627Z,1097.00
2023-03-29T17:01:39.629Z,1094.00
2023-03-29T17:02:39.661Z,1094.00
2023-03-29T17:03:39.611Z,1094.00
2023-03-29T17:04:39.674Z,1091.00
2023-03-29T17:05:39.611Z,1089.00
2023-03-29T17:06:39.615Z,1088.00
2023-03-29T17:07:39.633Z,1088.00
2023-03-29T17:08:39.609Z,1086.00
2023-03-29T17:09:39.652Z,1086.00
2023-03-29T17:10:39.698Z,1081.00
2023-03-29T17:11:39.795Z,1079.00
2023-03-29T17:12:39.833Z,1078.00
2023-03-29T17:13:40.282Z,1077.00
2023-03-29T17:14:39.917Z,1076.00
2023-03-29T17:15:40.159Z,1078.00
2023-03-29T17:16:40.079Z,1077.00
2023-03-29T17:17:40.084Z,1077.00
2023-03-29T17:18:40.095Z,1077.00
2023-03-29T17:19:40.158Z,1075.00
2023-03-29T17:20:40.190Z,1073.00
2023-03-29T17:21:40.255Z,1068.00